Time;durP1;ratioP1;P1;durP2;ratioP2;P2;SDS_P1;SDS_P2;PMS_P1;PMS_P2;Temp;Humidity;BMP_temperature;BMP_pressure;BME280_temperature;BME280_humidity;BME280_pressure;Samples;Min_cycle;Max_cycle;Signal;HPM_P1;HPM_P2
2022/09/28 00:01:43;;;;;;;4.55;3.50;;;8.60;99.90;;;;;;7394750;32;21202;-61
2022/09/28 00:05:45;;;;;;;4.18;3.47;;;8.60;99.90;;;;;;7391777;32;20515;-60
2022/09/28 00:09:46;;;;;;;4.00;3.10;;;8.70;99.90;;;;;;7398068;32;20098;-60
2022/09/28 00:13:51;;;;;;;4.78;3.00;;;8.70;99.90;;;;;;7399241;32;20130;-60
2022/09/28 00:17:52;;;;;;;5.82;2.90;;;8.60;99.90;;;;;;7388636;32;20131;-60
2022/09/28 00:21:54;;;;;;;4.35;2.87;;;8.60;99.90;;;;;;7391787;32;20143;-60
2022/09/28 00:26:00;;;;;;;5.47;2.78;;;8.60;99.90;;;;;;7391536;32;20098;-60
2022/09/28 00:30:02;;;;;;;5.22;2.80;;;8.60;99.90;;;;;;7392461;32;20099;-62
2022/09/28 00:34:04;;;;;;;4.45;3.00;;;8.60;99.90;;;;;;7399285;32;20095;-60
2022/09/28 00:38:08;;;;;;;4.82;3.03;;;8.60;99.90;;;;;;7396483;32;20099;-61
2022/09/28 00:42:19;;;;;;;8.52;3.85;;;8.60;99.90;;;;;;7389891;32;20644;-61
2022/09/28 00:46:33;;;;;;;5.70;3.78;;;8.60;99.90;;;;;;7396168;32;20111;-60
2022/09/28 00:50:37;;;;;;;5.10;3.58;;;8.60;99.90;;;;;;7399029;32;20091;-60
2022/09/28 00:54:40;;;;;;;4.90;4.00;;;8.50;99.90;;;;;;7402708;32;20099;-61
2022/09/28 00:58:46;;;;;;;5.28;4.32;;;8.50;99.90;;;;;;7403520;32;20228;-60
2022/09/28 01:02:48;;;;;;;7.50;4.28;;;8.60;99.90;;;;;;7395104;32;20103;-60
2022/09/28 01:06:51;;;;;;;7.15;4.80;;;8.50;99.90;;;;;;7395151;32;20642;-60
2022/09/28 01:10:52;;;;;;;6.00;4.60;;;8.50;99.90;;;;;;7399915;32;20334;-59
2022/09/28 01:14:56;;;;;;;6.55;5.20;;;8.60;99.90;;;;;;7390296;32;20721;-59
2022/09/28 01:19:28;;;;;;;7.25;5.00;;;8.60;99.90;;;;;;7398532;32;20474;-59
2022/09/28 01:24:02;;;;;;;7.55;6.12;;;8.50;99.90;;;;;;7398055;32;20785;-59
2022/09/28 01:28:13;;;;;;;9.38;6.95;;;8.50;99.90;;;;;;7397621;32;20103;-61
2022/09/28 01:32:30;;;;;;;9.55;6.80;;;8.50;99.90;;;;;;7392717;32;20555;-59
2022/09/28 01:36:49;;;;;;;9.68;6.60;;;8.50;99.90;;;;;;7397684;32;20250;-61
2022/09/28 01:40:52;;;;;;;8.18;6.75;;;8.50;99.90;;;;;;7394056;32;20106;-59
2022/09/28 01:44:59;;;;;;;12.27;8.02;;;8.50;99.90;;;;;;7402822;32;20225;-60
2022/09/28 01:49:08;;;;;;;10.55;7.78;;;8.50;99.90;;;;;;7395411;32;20193;-59
2022/09/28 01:53:19;;;;;;;11.48;7.55;;;8.50;99.90;;;;;;7388088;32;20099;-61
2022/09/28 01:57:27;;;;;;;11.70;8.52;;;8.40;99.90;;;;;;7391553;32;20110;-59
2022/09/28 02:01:37;;;;;;;10.25;7.87;;;8.50;99.90;;;;;;7394886;32;20103;-60
2022/09/28 02:05:42;;;;;;;11.88;9.32;;;8.50;99.90;;;;;;7394588;32;20197;-59
2022/09/28 02:09:48;;;;;;;13.20;8.40;;;8.50;99.90;;;;;;7371732;32;20103;-59
2022/09/28 02:14:09;;;;;;;11.15;9.35;;;8.40;99.90;;;;;;7389500;31;20190;-59
2022/09/28 02:18:11;;;;;;;11.57;9.65;;;8.40;99.90;;;;;;7387785;32;20673;-59
2022/09/28 02:22:30;;;;;;;12.48;10.48;;;8.40;99.90;;;;;;7389680;32;20103;-59
2022/09/28 02:26:38;;;;;;;12.07;9.63;;;8.40;99.90;;;;;;7396329;32;20095;-60
2022/09/28 02:30:41;;;;;;;13.40;9.77;;;8.40;99.90;;;;;;7390347;32;20103;-59
2022/09/28 02:34:43;;;;;;;12.20;10.00;;;8.40;99.90;;;;;;7394994;32;20102;-61
2022/09/28 02:38:45;;;;;;;11.27;9.43;;;8.40;99.90;;;;;;7393293;32;20129;-60
2022/09/28 02:43:23;;;;;;;11.82;9.73;;;8.50;99.90;;;;;;7392827;32;20129;-60
2022/09/28 02:47:49;;;;;;;12.63;10.40;;;8.40;99.90;;;;;;7399771;32;20095;-60
2022/09/28 02:52:00;;;;;;;16.25;10.55;;;8.40;99.90;;;;;;7397381;32;20129;-61
2022/09/28 02:56:34;;;;;;;13.13;10.50;;;8.40;99.90;;;;;;7395807;32;20106;-60
2022/09/28 03:00:54;;;;;;;13.07;10.85;;;8.40;99.90;;;;;;7395433;32;20121;-60
2022/09/28 03:05:08;;;;;;;14.57;10.10;;;8.40;99.90;;;;;;7390859;32;20465;-60
2022/09/28 03:09:31;;;;;;;12.37;10.75;;;8.40;99.90;;;;;;7395279;32;20182;-60
2022/09/28 03:13:34;;;;;;;18.67;11.15;;;8.40;99.90;;;;;;7391931;32;20232;-59
2022/09/28 03:17:36;;;;;;;12.63;11.32;;;8.40;99.90;;;;;;7391052;32;20536;-59
2022/09/28 03:21:40;;;;;;;14.45;12.10;;;8.40;99.90;;;;;;7390181;32;20129;-59
2022/09/28 03:25:42;;;;;;;14.95;12.90;;;8.40;99.90;;;;;;7394489;32;20129;-59
2022/09/28 03:29:44;;;;;;;14.45;12.32;;;8.50;99.90;;;;;;7397716;32;20106;-59
2022/09/28 03:33:45;;;;;;;15.93;13.35;;;8.40;99.90;;;;;;7393813;32;20208;-59
2022/09/28 03:37:47;;;;;;;15.55;13.45;;;8.50;99.90;;;;;;7389552;32;20205;-59
2022/09/28 03:41:49;;;;;;;16.42;13.60;;;8.40;99.90;;;;;;7392816;32;20115;-59
2022/09/28 03:45:58;;;;;;;21.67;14.20;;;8.50;99.90;;;;;;7398365;32;20220;-59
2022/09/28 03:50:01;;;;;;;19.52;14.20;;;8.40;99.90;;;;;;7397992;32;20646;-59
2022/09/28 03:54:03;;;;;;;18.83;15.30;;;8.40;99.90;;;;;;7386638;32;20193;-59
2022/09/28 03:58:04;;;;;;;19.23;15.23;;;8.40;99.90;;;;;;7396625;32;20519;-59
2022/09/28 04:02:07;;;;;;;21.52;16.50;;;8.40;99.90;;;;;;7393968;32;20117;-59
2022/09/28 04:06:09;;;;;;;20.02;16.42;;;8.50;99.90;;;;;;7392440;32;20198;-59
2022/09/28 04:10:10;;;;;;;20.50;16.65;;;8.50;99.90;;;;;;7396723;32;20189;-60
2022/09/28 04:14:12;;;;;;;22.37;18.05;;;8.50;99.90;;;;;;7396435;32;20432;-60
2022/09/28 04:18:13;;;;;;;24.00;18.98;;;8.40;99.90;;;;;;7393378;32;20183;-60
2022/09/28 04:22:15;;;;;;;22.65;17.70;;;8.40;99.90;;;;;;7390086;32;20106;-59
2022/09/28 04:26:22;;;;;;;24.10;18.85;;;8.50;99.90;;;;;;7374925;32;20110;-59
2022/09/28 04:30:24;;;;;;;23.92;19.33;;;8.50;99.90;;;;;;7386686;32;20209;-60
2022/09/28 04:34:26;;;;;;;26.17;19.05;;;8.50;99.90;;;;;;7393112;32;20154;-59
2022/09/28 04:38:32;;;;;;;24.67;19.83;;;8.50;99.90;;;;;;7399039;32;20132;-60
2022/09/28 04:42:54;;;;;;;24.37;19.60;;;8.40;99.90;;;;;;7393551;32;20848;-60
2022/09/28 04:46:56;;;;;;;26.00;19.62;;;8.50;99.90;;;;;;7397102;32;20135;-59
2022/09/28 04:51:05;;;;;;;25.75;19.45;;;8.50;99.90;;;;;;7392718;32;20169;-59
2022/09/28 04:55:12;;;;;;;25.60;19.27;;;8.50;99.90;;;;;;7393744;31;20246;-59
2022/09/28 04:59:14;;;;;;;23.02;19.33;;;8.50;99.90;;;;;;7399598;32;20221;-60
2022/09/28 05:03:16;;;;;;;23.62;18.17;;;8.50;99.90;;;;;;7394846;32;20145;-59
2022/09/28 05:07:18;;;;;;;24.40;18.42;;;8.50;99.90;;;;;;7391106;32;20172;-60
2022/09/28 05:11:20;;;;;;;21.73;17.50;;;8.50;99.90;;;;;;7392256;32;20186;-62
2022/09/28 05:15:22;;;;;;;23.15;18.55;;;8.50;99.90;;;;;;7398585;31;20571;-62
2022/09/28 05:19:23;;;;;;;26.27;19.45;;;8.50;99.90;;;;;;7394481;32;20110;-62
2022/09/28 05:23:25;;;;;;;21.35;18.25;;;8.50;99.90;;;;;;7403460;32;20099;-62
2022/09/28 05:27:27;;;;;;;25.52;20.10;;;8.50;99.90;;;;;;7398003;32;20159;-61
2022/09/28 05:31:29;;;;;;;27.90;20.50;;;8.50;99.90;;;;;;7398571;32;20183;-64
2022/09/28 05:35:31;;;;;;;23.90;19.30;;;8.50;99.90;;;;;;7402616;31;20106;-63
2022/09/28 05:39:32;;;;;;;24.70;20.30;;;8.50;99.90;;;;;;7391625;31;20118;-63
2022/09/28 05:43:35;;;;;;;24.05;20.10;;;8.50;99.90;;;;;;7397814;32;20142;-64
2022/09/28 05:47:41;;;;;;;21.62;18.10;;;8.50;99.90;;;;;;7389063;32;20201;-62
2022/09/28 05:51:43;;;;;;;26.08;18.92;;;8.60;99.90;;;;;;7399606;32;20121;-62
2022/09/28 05:55:45;;;;;;;23.15;19.52;;;8.60;99.90;;;;;;7391396;32;20094;-63
2022/09/28 05:59:47;;;;;;;22.00;18.42;;;8.60;99.90;;;;;;7389625;32;20196;-64
2022/09/28 06:03:48;;;;;;;23.67;18.95;;;8.60;99.90;;;;;;7394861;32;20106;-62
2022/09/28 06:07:51;;;;;;;21.95;18.33;;;8.60;99.90;;;;;;7399871;32;20190;-63
2022/09/28 06:11:53;;;;;;;17.50;15.30;;;8.70;99.90;;;;;;7398911;32;20428;-63
2022/09/28 06:15:55;;;;;;;22.08;17.12;;;8.70;99.90;;;;;;7388089;32;20103;-63
2022/09/28 06:19:57;;;;;;;17.08;14.63;;;8.70;99.90;;;;;;7390201;32;20118;-64
2022/09/28 06:23:59;;;;;;;23.20;15.52;;;8.70;99.90;;;;;;7397156;32;20165;-63
2022/09/28 06:28:03;;;;;;;18.33;14.50;;;8.70;99.90;;;;;;7377880;32;20281;-62
2022/09/28 06:32:06;;;;;;;18.37;14.10;;;8.70;99.90;;;;;;7392763;32;20186;-63
2022/09/28 06:36:09;;;;;;;17.83;15.90;;;8.70;99.90;;;;;;7388818;32;20099;-64
2022/09/28 06:40:10;;;;;;;17.83;14.55;;;8.60;99.90;;;;;;7390502;32;20194;-63
2022/09/28 06:44:12;;;;;;;15.75;13.15;;;8.60;99.90;;;;;;7393180;32;20138;-65
2022/09/28 06:48:14;;;;;;;15.90;11.95;;;8.60;99.90;;;;;;7394457;32;20144;-63
2022/09/28 06:52:15;;;;;;;16.50;11.50;;;8.60;99.90;;;;;;7392123;31;20114;-65
2022/09/28 06:56:18;;;;;;;14.20;12.05;;;8.70;99.90;;;;;;7393700;32;20212;-64
2022/09/28 07:00:20;;;;;;;12.32;10.00;;;8.70;99.90;;;;;;7390598;31;20224;-64
2022/09/28 07:07:19;;;;;;;14.35;10.70;;;8.70;99.90;;;;;;7389262;31;20277;-65
2022/09/28 07:11:21;;;;;;;14.10;9.93;;;8.70;99.90;;;;;;7365342;32;20263;-63
2022/09/28 07:15:23;;;;;;;16.27;9.70;;;8.80;99.90;;;;;;7361134;32;20799;-64
2022/09/28 07:19:26;;;;;;;12.32;9.32;;;8.80;99.90;;;;;;7364115;32;20205;-64
2022/09/28 07:23:29;;;;;;;11.63;8.30;;;8.80;99.90;;;;;;7366753;32;20107;-66
2022/09/28 07:27:31;;;;;;;11.30;8.00;;;8.70;99.90;;;;;;7365953;32;20217;-63
2022/09/28 07:31:34;;;;;;;9.40;7.80;;;8.70;99.90;;;;;;7363822;32;20220;-65
2022/09/28 07:35:35;;;;;;;10.25;7.22;;;8.70;99.90;;;;;;7360560;32;20115;-63
2022/09/28 07:44:04;;;;;;;10.05;6.90;;;8.70;99.90;;;;;;7362118;32;20220;-63
2022/09/28 07:48:06;;;;;;;8.73;6.43;;;8.80;99.90;;;;;;7361177;32;20214;-63
2022/09/28 07:52:09;;;;;;;10.27;7.12;;;8.90;99.90;;;;;;7361617;32;20218;-64
2022/09/28 07:56:12;;;;;;;10.27;6.32;;;9.00;99.90;;;;;;7370932;32;20104;-62
2022/09/28 08:00:14;;;;;;;8.70;6.47;;;9.10;99.90;;;;;;7361687;32;20111;-63
2022/09/28 08:04:16;;;;;;;7.05;5.97;;;9.10;99.90;;;;;;7367822;32;20523;-64
2022/09/28 08:08:19;;;;;;;10.45;5.60;;;9.20;99.90;;;;;;7360077;32;20210;-62
2022/09/28 08:12:21;;;;;;;7.03;5.80;;;9.40;99.90;;;;;;7368801;32;20122;-64
2022/09/28 08:16:22;;;;;;;7.85;4.87;;;9.50;99.90;;;;;;7357227;32;20416;-63
2022/09/28 08:24:50;;;;;;;8.20;5.03;;;9.60;99.90;;;;;;7346808;32;20111;-66
2022/09/28 08:28:51;;;;;;;8.18;4.82;;;9.60;99.90;;;;;;7343750;32;20111;-63
2022/09/28 08:32:54;;;;;;;9.38;5.37;;;9.70;99.90;;;;;;7343533;32;20260;-63
2022/09/28 08:36:56;;;;;;;7.82;5.20;;;9.80;99.90;;;;;;7344720;32;20281;-62
2022/09/28 08:41:23;;;;;;;8.40;5.47;;;9.80;99.90;;;;;;7341639;32;20099;-62
2022/09/28 08:45:29;;;;;;;10.90;5.95;;;9.90;99.90;;;;;;7337731;32;20236;-62
2022/09/28 08:49:35;;;;;;;7.78;5.65;;;9.90;99.90;;;;;;7345943;32;20245;-62
2022/09/28 08:54:02;;;;;;;6.75;5.25;;;10.00;99.90;;;;;;7336875;32;20128;-62
2022/09/28 08:58:27;;;;;;;10.25;5.87;;;10.10;99.90;;;;;;7350418;32;20202;-62
2022/09/28 09:02:38;;;;;;;8.95;6.07;;;10.20;99.90;;;;;;7343570;32;20225;-62
2022/09/28 09:06:49;;;;;;;8.75;6.40;;;10.50;99.90;;;;;;7347679;32;20126;-64
2022/09/28 09:11:21;;;;;;;11.88;6.15;;;10.60;99.90;;;;;;7338708;32;20479;-62
2022/09/28 09:15:47;;;;;;;8.10;6.55;;;10.70;99.90;;;;;;7337057;32;20202;-63
2022/09/28 09:20:20;;;;;;;7.70;6.90;;;10.60;99.90;;;;;;7338128;32;20670;-65
2022/09/28 09:24:32;;;;;;;11.00;7.85;;;10.50;99.90;;;;;;7341747;32;20116;-62
2022/09/28 09:28:44;;;;;;;9.13;8.20;;;10.50;99.90;;;;;;7341487;32;20205;-62
2022/09/28 09:32:53;;;;;;;10.30;8.18;;;10.40;99.90;;;;;;7345067;32;20127;-62
2022/09/28 09:36:57;;;;;;;12.60;8.25;;;10.30;99.90;;;;;;7338690;32;20229;-62
2022/09/28 09:41:17;;;;;;;9.48;8.20;;;10.40;99.90;;;;;;7343988;32;20554;-63
2022/09/28 09:45:49;;;;;;;7.95;7.18;;;10.50;99.90;;;;;;7340102;32;20137;-63
2022/09/28 09:50:06;;;;;;;11.23;6.70;;;10.70;99.90;;;;;;7342013;32;20139;-63
2022/09/28 09:54:41;;;;;;;7.87;5.90;;;10.70;99.90;;;;;;7346384;32;20195;-63
2022/09/28 09:58:48;;;;;;;9.75;6.78;;;10.60;99.90;;;;;;7336249;32;20119;-64
2022/09/28 10:02:52;;;;;;;10.98;5.95;;;10.60;99.90;;;;;;7335960;32;20191;-64
2022/09/28 10:07:01;;;;;;;10.07;6.12;;;10.50;99.90;;;;;;7337198;32;20202;-64
2022/09/28 10:11:13;;;;;;;8.20;5.70;;;10.50;99.90;;;;;;7344420;32;20226;-63
2022/09/28 10:15:18;;;;;;;10.70;5.97;;;10.50;99.90;;;;;;7347083;32;20225;-62
2022/09/28 10:19:32;;;;;;;8.07;5.55;;;10.60;99.90;;;;;;7336224;32;20641;-63
2022/09/28 10:23:36;;;;;;;7.12;4.30;;;10.70;99.90;;;;;;7342716;32;20243;-65
2022/09/28 10:27:45;;;;;;;5.72;3.90;;;10.70;99.90;;;;;;7340273;32;20211;-64
2022/09/28 10:31:52;;;;;;;7.57;3.30;;;10.70;99.90;;;;;;7344835;32;20102;-64
2022/09/28 10:35:54;;;;;;;4.87;2.62;;;10.90;99.90;;;;;;7345328;32;20511;-62
2022/09/28 10:39:56;;;;;;;3.53;2.70;;;11.00;99.90;;;;;;7338781;32;20103;-62
2022/09/28 10:44:09;;;;;;;5.47;2.75;;;11.10;99.90;;;;;;7339197;32;20103;-63
2022/09/28 10:48:21;;;;;;;3.10;2.47;;;11.20;99.90;;;;;;7339898;32;20190;-63
2022/09/28 10:52:39;;;;;;;4.43;2.35;;;11.40;99.90;;;;;;7337684;32;20139;-64
2022/09/28 10:56:41;;;;;;;4.60;3.05;;;11.60;99.90;;;;;;7343384;32;20129;-64
2022/09/28 11:00:59;;;;;;;5.47;2.78;;;11.70;99.90;;;;;;7337969;32;20126;-64
2022/09/28 11:05:12;;;;;;;2.58;2.05;;;11.60;99.90;;;;;;7346489;32;20191;-64
2022/09/28 11:09:30;;;;;;;4.93;2.60;;;11.50;99.90;;;;;;7344137;32;20122;-64
2022/09/28 11:13:48;;;;;;;2.60;1.90;;;11.40;99.90;;;;;;7339862;32;20100;-65
2022/09/28 11:17:49;;;;;;;;;;;11.40;99.90;;;;;;7334796;32;20210;-64
2022/09/28 11:21:51;;;;;;;2.80;2.15;;;11.30;99.90;;;;;;7336428;32;20045;-63
2022/09/28 11:26:04;;;;;;;3.85;2.72;;;11.20;99.90;;;;;;7338503;32;20111;-64
2022/09/28 11:30:20;;;;;;;3.95;2.12;;;11.30;99.90;;;;;;7344647;32;20817;-64
2022/09/28 11:34:25;;;;;;;6.10;2.35;;;11.50;99.90;;;;;;7335163;32;20134;-64
2022/09/28 11:39:16;;;;;;;5.53;2.30;;;11.60;99.90;;;;;;7343450;32;20244;-64
2022/09/28 11:44:02;;;;;;;2.60;1.98;;;11.70;99.90;;;;;;7328640;32;20134;-63
2022/09/28 11:48:14;;;;;;;3.42;1.85;;;11.90;99.90;;;;;;7317203;32;20241;-64
2022/09/28 11:52:35;;;;;;;2.40;1.70;;;12.00;99.90;;;;;;7347491;32;20095;-65
2022/09/28 11:56:48;;;;;;;2.60;1.80;;;11.90;99.90;;;;;;7343093;32;20186;-65
2022/09/28 12:00:58;;;;;;;4.85;3.05;;;12.00;99.90;;;;;;7339580;32;20194;-64
2022/09/28 12:05:12;;;;;;;6.50;2.17;;;11.90;99.90;;;;;;7339226;32;20634;-66
2022/09/28 12:09:46;;;;;;;4.60;2.12;;;11.90;99.90;;;;;;7348538;32;20298;-64
2022/09/28 12:13:51;;;;;;;3.78;2.80;;;11.80;99.90;;;;;;7342382;32;20108;-63
2022/09/28 12:18:21;;;;;;;2.80;1.73;;;12.10;99.90;;;;;;7338763;32;20123;-64
2022/09/28 12:22:39;;;;;;;3.95;1.90;;;12.30;99.90;;;;;;7350968;32;20297;-60
2022/09/28 12:26:59;;;;;;;3.20;1.55;;;12.40;99.90;;;;;;7346144;32;20187;-66
2022/09/28 12:31:13;;;;;;;3.37;1.90;;;12.40;99.90;;;;;;7337297;32;20099;-64
2022/09/28 12:36:01;;;;;;;5.87;2.72;;;12.30;99.90;;;;;;7342205;32;20559;-65
2022/09/28 12:40:03;;;;;;;5.10;2.20;;;12.00;99.90;;;;;;7342621;32;20104;-65
2022/09/28 12:44:08;;;;;;;3.75;1.90;;;12.00;99.90;;;;;;7340073;32;20547;-65
2022/09/28 12:48:29;;;;;;;2.40;1.92;;;11.90;99.90;;;;;;7342329;32;20186;-65
2022/09/28 12:52:54;;;;;;;2.95;2.30;;;11.80;99.90;;;;;;7339635;32;20257;-65
2022/09/28 12:57:39;;;;;;;5.47;2.40;;;11.80;99.90;;;;;;7334200;32;20303;-64
2022/09/28 13:02:18;;;;;;;3.85;2.20;;;11.90;99.90;;;;;;7344900;32;20197;-65
2022/09/28 13:07:00;;;;;;;4.87;1.60;;;12.20;99.90;;;;;;7341856;32;20534;-64
2022/09/28 13:11:18;;;;;;;2.80;1.00;;;12.90;99.90;;;;;;7341191;32;20154;-64
2022/09/28 13:15:45;;;;;;;2.33;1.05;;;13.60;99.90;;;;;;7357699;32;20550;-66
2022/09/28 13:20:03;;;;;;;1.67;0.70;;;14.20;99.90;;;;;;7342226;32;20107;-65
2022/09/28 13:24:11;;;;;;;2.53;0.77;;;14.60;99.90;;;;;;7339613;32;20103;-64
2022/09/28 13:28:34;;;;;;;1.20;0.80;;;14.50;99.90;;;;;;7340658;32;20100;-65
2022/09/28 13:32:37;;;;;;;1.48;0.73;;;14.40;99.90;;;;;;7343443;32;20100;-64
2022/09/28 13:36:41;;;;;;;3.95;0.80;;;14.40;99.90;;;;;;7341195;32;20143;-66
2022/09/28 13:41:03;;;;;;;3.65;0.77;;;14.80;99.90;;;;;;7346854;32;20122;-64
2022/09/28 13:45:20;;;;;;;2.63;0.67;;;14.90;99.90;;;;;;7347284;32;20117;-64
2022/09/28 13:49:55;;;;;;;3.60;0.80;;;14.60;99.90;;;;;;7346024;32;20519;-64
2022/09/28 13:54:22;;;;;;;2.53;0.70;;;14.50;99.90;;;;;;7348392;32;20138;-64
2022/09/28 13:58:42;;;;;;;2.10;0.80;;;14.30;99.90;;;;;;7344407;32;20845;-64
2022/09/28 14:03:00;;;;;;;2.28;1.12;;;14.20;99.90;;;;;;7343799;32;20487;-64
2022/09/28 14:07:15;;;;;;;2.92;0.88;;;14.10;99.90;;;;;;7341974;32;20200;-64
2022/09/28 14:11:26;;;;;;;3.35;1.00;;;13.90;99.90;;;;;;7339820;32;21003;-64
2022/09/28 14:15:28;;;;;;;3.40;1.05;;;13.90;99.90;;;;;;7348926;32;20201;-67
2022/09/28 14:19:32;;;;;;;7.35;0.90;;;13.70;99.90;;;;;;7345398;32;20094;-65
2022/09/28 14:23:59;;;;;;;3.55;1.02;;;13.70;99.90;;;;;;7345022;32;20535;-65
2022/09/28 14:28:25;;;;;;;2.28;1.15;;;13.50;99.90;;;;;;7347688;32;20217;-65
2022/09/28 14:32:33;;;;;;;3.03;1.60;;;13.00;99.90;;;;;;7343141;32;20218;-65
2022/09/28 14:41:10;;;;;;;3.85;1.40;;;12.90;99.90;;;;;;7345791;32;20208;-65
2022/09/28 14:45:11;;;;;;;5.28;1.65;;;12.70;99.90;;;;;;7344451;32;20683;-65
2022/09/28 14:49:16;;;;;;;4.32;1.87;;;12.80;99.90;;;;;;7346435;32;20730;-65
2022/09/28 14:53:22;;;;;;;2.08;1.40;;;12.60;99.90;;;;;;7339471;32;20150;-65
2022/09/28 14:57:27;;;;;;;5.43;1.83;;;12.70;99.90;;;;;;7339773;32;20241;-65
2022/09/28 15:01:29;;;;;;;3.37;1.60;;;12.60;99.90;;;;;;7336655;32;20701;-64
2022/09/28 15:05:45;;;;;;;2.75;1.80;;;12.50;99.90;;;;;;7342103;32;20107;-64
2022/09/28 15:09:50;;;;;;;3.65;1.75;;;12.30;99.90;;;;;;7341503;32;20570;-66
2022/09/28 15:14:05;;;;;;;4.97;2.90;;;12.20;99.90;;;;;;7347665;32;20154;-65
2022/09/28 15:18:27;;;;;;;1.77;1.23;;;12.10;99.90;;;;;;7343480;32;20574;-64
2022/09/28 15:22:29;;;;;;;3.25;0.80;;;11.50;99.90;;;;;;7350013;32;20099;-66
2022/09/28 15:26:33;;;;;;;0.85;0.70;;;11.20;99.90;;;;;;7345538;32;20252;-66
2022/09/28 15:30:35;;;;;;;1.08;0.90;;;10.90;99.90;;;;;;7348298;32;20149;-64
2022/09/28 15:34:55;;;;;;;2.45;0.65;;;10.70;99.90;;;;;;7344226;32;20100;-65
2022/09/28 15:39:04;;;;;;;3.70;1.02;;;10.50;99.90;;;;;;7349222;32;20185;-65
2022/09/28 15:43:31;;;;;;;2.53;1.40;;;10.40;99.90;;;;;;7349122;32;20150;-65
2022/09/28 15:47:34;;;;;;;2.10;1.10;;;10.30;99.90;;;;;;7344244;32;20202;-65
2022/09/28 15:51:51;;;;;;;2.12;1.00;;;10.20;99.90;;;;;;7345143;32;20122;-65
2022/09/28 15:56:00;;;;;;;2.40;1.27;;;10.20;99.90;;;;;;7348826;32;20099;-64
2022/09/28 16:00:21;;;;;;;2.22;1.42;;;10.10;99.90;;;;;;7342489;32;20294;-65
2022/09/28 16:04:36;;;;;;;2.95;1.15;;;10.20;99.90;;;;;;7343589;32;20560;-65
2022/09/28 16:08:40;;;;;;;4.05;0.70;;;10.10;99.90;;;;;;7344654;32;20333;-65
2022/09/28 16:12:55;;;;;;;2.00;0.90;;;10.10;99.90;;;;;;7342685;32;20142;-65
2022/09/28 16:16:57;;;;;;;2.67;1.20;;;10.00;99.90;;;;;;7343291;32;20132;-64
2022/09/28 16:21:38;;;;;;;2.80;0.90;;;10.00;99.90;;;;;;7341498;32;20099;-64
2022/09/28 16:25:50;;;;;;;5.37;1.00;;;9.90;99.90;;;;;;7339963;32;20107;-65
2022/09/28 16:30:13;;;;;;;6.10;1.90;;;9.80;99.90;;;;;;7351072;32;20096;-64
2022/09/28 16:34:18;;;;;;;4.57;2.60;;;9.70;99.90;;;;;;7349584;32;20351;-65
2022/09/28 16:38:20;;;;;;;3.10;2.17;;;9.70;99.90;;;;;;7338905;32;20099;-66
2022/09/28 16:42:23;;;;;;;2.78;2.45;;;9.60;99.90;;;;;;7340093;32;20437;-65
2022/09/28 16:46:30;;;;;;;6.37;3.42;;;9.60;99.90;;;;;;7342666;32;21025;-66
2022/09/28 16:50:32;;;;;;;5.75;3.60;;;9.60;99.90;;;;;;7346116;32;20104;-64
2022/09/28 16:58:55;;;;;;;3.10;2.05;;;9.60;99.90;;;;;;7341210;32;20119;-65
2022/09/28 17:02:57;;;;;;;3.10;1.90;;;9.50;99.90;;;;;;7344075;32;20122;-65
2022/09/28 17:06:59;;;;;;;5.35;2.28;;;9.40;99.90;;;;;;7344795;32;20592;-65
2022/09/28 17:11:01;;;;;;;11.10;6.68;;;9.40;99.90;;;;;;7345666;32;20099;-64
2022/09/28 17:15:24;;;;;;;5.93;3.40;;;9.40;99.90;;;;;;7344440;32;20103;-65
2022/09/28 17:19:28;;;;;;;4.62;2.80;;;9.40;99.90;;;;;;7341978;32;20115;-64
2022/09/28 17:23:30;;;;;;;4.12;3.00;;;9.30;99.90;;;;;;7345976;32;20170;-66
2022/09/28 17:27:31;;;;;;;3.35;1.95;;;9.20;99.90;;;;;;7338697;32;20247;-61
2022/09/28 17:31:33;;;;;;;3.25;2.72;;;9.10;99.90;;;;;;7346380;32;20240;-62
2022/09/28 17:35:36;;;;;;;1.73;1.62;;;9.10;99.90;;;;;;7339086;32;20932;-62
2022/09/28 17:39:40;;;;;;;1.77;1.30;;;9.00;99.90;;;;;;7344511;32;20309;-62
2022/09/28 17:43:42;;;;;;;1.58;1.15;;;8.90;99.90;;;;;;7347520;32;20676;-62
2022/09/28 17:47:44;;;;;;;2.00;1.50;;;8.90;99.90;;;;;;7337623;32;20111;-64
2022/09/28 17:51:46;;;;;;;10.93;8.25;;;8.80;99.90;;;;;;7344584;32;20126;-65
2022/09/28 17:55:47;;;;;;;10.55;6.07;;;8.80;99.90;;;;;;7343877;32;20137;-64
2022/09/28 17:59:49;;;;;;;9.30;7.45;;;8.70;99.90;;;;;;7344977;32;20099;-62
2022/09/28 18:03:51;;;;;;;6.75;4.95;;;8.70;99.90;;;;;;7345840;32;20130;-65
2022/09/28 18:07:53;;;;;;;7.00;4.80;;;8.60;99.90;;;;;;7342992;32;20095;-63
2022/09/28 18:11:59;;;;;;;8.10;6.97;;;8.60;99.90;;;;;;7344113;32;20116;-65
2022/09/28 18:16:02;;;;;;;5.37;3.90;;;8.50;99.90;;;;;;7345047;32;20784;-65
2022/09/28 18:20:07;;;;;;;4.37;3.78;;;8.40;99.90;;;;;;7343200;32;20100;-65
2022/09/28 18:24:08;;;;;;;3.87;3.08;;;8.40;99.90;;;;;;7343067;32;20156;-64
2022/09/28 18:28:16;;;;;;;5.10;3.90;;;8.40;99.90;;;;;;7339697;32;20126;-66
2022/09/28 18:32:18;;;;;;;6.45;4.25;;;8.40;99.90;;;;;;7339169;32;20107;-64
2022/09/28 18:36:20;;;;;;;8.68;5.43;;;8.30;99.90;;;;;;7340084;32;20095;-65
2022/09/28 18:40:22;;;;;;;6.68;5.20;;;8.30;99.90;;;;;;7342423;32;20228;-65
2022/09/28 18:44:23;;;;;;;6.78;4.50;;;8.30;99.90;;;;;;7342167;32;20429;-64
2022/09/28 18:48:26;;;;;;;7.37;4.50;;;8.20;99.90;;;;;;7340155;32;20150;-64
2022/09/28 18:52:28;;;;;;;5.50;3.95;;;8.20;99.90;;;;;;7344631;32;20123;-64
2022/09/28 18:56:30;;;;;;;4.93;3.97;;;8.10;99.90;;;;;;7343850;32;20108;-67
2022/09/28 19:00:31;;;;;;;8.68;5.05;;;8.10;99.90;;;;;;7343294;32;20186;-67
2022/09/28 19:04:33;;;;;;;8.63;6.57;;;8.10;99.90;;;;;;7342953;32;20124;-67
2022/09/28 19:08:38;;;;;;;8.88;6.20;;;8.00;99.90;;;;;;7339028;32;20096;-66
2022/09/28 19:12:39;;;;;;;7.25;6.20;;;8.00;99.90;;;;;;7342187;32;20096;-67
2022/09/28 19:16:43;;;;;;;10.23;7.25;;;7.90;99.90;;;;;;7345448;32;20190;-66
2022/09/28 19:20:44;;;;;;;10.75;8.35;;;7.90;99.90;;;;;;7343756;32;20426;-66
2022/09/28 19:24:46;;;;;;;9.57;8.48;;;7.80;99.90;;;;;;7341894;32;20837;-67
2022/09/28 19:28:48;;;;;;;14.15;9.63;;;7.90;99.90;;;;;;7341908;32;20114;-66
2022/09/28 19:32:50;;;;;;;16.83;11.60;;;7.80;99.90;;;;;;7341566;32;20221;-65
2022/09/28 19:36:52;;;;;;;12.88;10.95;;;7.70;99.90;;;;;;7337693;32;20199;-65
2022/09/28 19:40:53;;;;;;;13.48;11.40;;;7.70;99.90;;;;;;7340085;32;20130;-64
2022/09/28 19:44:56;;;;;;;13.65;12.10;;;7.60;99.90;;;;;;7341937;32;20206;-62
2022/09/28 19:49:08;;;;;;;14.20;12.60;;;7.60;99.90;;;;;;7337565;32;20137;-63
2022/09/28 19:53:09;;;;;;;16.98;12.63;;;7.60;99.90;;;;;;7350496;32;20178;-64
2022/09/28 19:57:14;;;;;;;16.50;12.57;;;7.50;99.90;;;;;;7336924;32;20188;-63
2022/09/28 20:01:16;;;;;;;22.48;15.95;;;7.40;99.90;;;;;;7340748;32;20127;-64
2022/09/28 20:05:18;;;;;;;31.60;17.48;;;7.40;99.90;;;;;;7340456;32;20343;-64
2022/09/28 20:09:19;;;;;;;28.50;15.10;;;7.30;99.90;;;;;;7338277;32;20214;-65
2022/09/28 20:13:27;;;;;;;40.97;18.00;;;7.20;99.90;;;;;;7342001;32;20199;-64
2022/09/28 20:17:29;;;;;;;31.30;16.40;;;7.20;99.90;;;;;;7347505;32;20115;-67
2022/09/28 20:21:31;;;;;;;25.65;14.50;;;7.10;99.90;;;;;;7346975;32;20131;-64
2022/09/28 20:25:33;;;;;;;23.20;13.65;;;7.10;99.90;;;;;;7344459;32;20166;-64
2022/09/28 20:29:35;;;;;;;19.33;13.00;;;7.00;99.90;;;;;;7345723;32;20103;-64
2022/09/28 20:33:37;;;;;;;15.88;13.00;;;7.00;99.90;;;;;;7345468;32;20100;-64
2022/09/28 20:37:39;;;;;;;15.65;11.57;;;7.00;99.90;;;;;;7345869;32;20166;-65
2022/09/28 20:41:41;;;;;;;17.75;11.73;;;6.90;99.90;;;;;;7343085;32;20118;-66
2022/09/28 20:45:43;;;;;;;16.35;11.52;;;6.90;99.90;;;;;;7353327;32;20095;-64
2022/09/28 20:49:45;;;;;;;16.12;11.70;;;6.90;99.90;;;;;;7344874;32;20125;-63
2022/09/28 20:53:52;;;;;;;14.32;11.80;;;6.90;99.90;;;;;;7353483;32;20126;-64
2022/09/28 20:57:53;;;;;;;19.12;14.45;;;6.90;99.90;;;;;;7345793;32;20205;-65
2022/09/28 21:01:55;;;;;;;21.02;15.13;;;6.90;99.90;;;;;;7338952;32;20122;-64
2022/09/28 21:05:57;;;;;;;15.82;13.70;;;6.90;99.90;;;;;;7338048;32;20236;-64
2022/09/28 21:09:59;;;;;;;17.20;13.80;;;6.80;99.90;;;;;;7346207;32;20497;-65
2022/09/28 21:14:02;;;;;;;14.25;11.50;;;6.80;99.90;;;;;;7345844;32;20126;-64
2022/09/28 21:18:04;;;;;;;13.15;11.45;;;6.80;99.90;;;;;;7345877;32;20655;-63
2022/09/28 21:22:06;;;;;;;12.45;10.90;;;6.70;99.90;;;;;;7341805;32;20107;-63
2022/09/28 21:26:23;;;;;;;11.40;10.05;;;6.70;99.90;;;;;;7345597;32;20504;-62
2022/09/28 21:30:25;;;;;;;14.50;10.90;;;6.60;99.90;;;;;;7345976;32;20129;-62
2022/09/28 21:34:27;;;;;;;12.65;10.25;;;6.50;99.90;;;;;;7343282;32;20150;-63
2022/09/28 21:38:29;;;;;;;13.80;10.50;;;6.50;99.90;;;;;;7343458;32;20124;-60
2022/09/28 21:42:31;;;;;;;13.62;10.68;;;6.50;99.90;;;;;;7346367;32;20747;-64
2022/09/28 21:46:34;;;;;;;12.00;10.57;;;6.40;99.90;;;;;;7348595;32;20200;-61
2022/09/28 21:50:35;;;;;;;16.52;11.12;;;6.30;99.90;;;;;;7347007;32;20103;-62